sensor_id;sensor_type;location;lat;lon;timestamp;P1;durP1;ratioP1;P2;durP2;ratioP2
30539;SDS011;17321;46.312;4.776;2022-12-11T00:01:58;21.17;;;13.02;;
30539;SDS011;17321;46.312;4.776;2022-12-11T00:04:24;29.00;;;14.88;;
30539;SDS011;17321;46.312;4.776;2022-12-11T00:06:51;26.77;;;13.65;;
30539;SDS011;17321;46.312;4.776;2022-12-11T00:09:18;24.10;;;14.32;;
30539;SDS011;17321;46.312;4.776;2022-12-11T00:11:45;24.23;;;14.40;;
30539;SDS011;17321;46.312;4.776;2022-12-11T00:14:11;22.95;;;14.23;;
30539;SDS011;17321;46.312;4.776;2022-12-11T00:16:38;22.50;;;13.48;;
30539;SDS011;17321;46.312;4.776;2022-12-11T00:19:04;24.40;;;14.43;;
30539;SDS011;17321;46.312;4.776;2022-12-11T00:21:30;25.27;;;14.52;;
30539;SDS011;17321;46.312;4.776;2022-12-11T00:23:57;25.42;;;14.63;;
30539;SDS011;17321;46.312;4.776;2022-12-11T00:26:23;24.15;;;13.20;;
30539;SDS011;17321;46.312;4.776;2022-12-11T00:28:51;27.77;;;16.02;;
30539;SDS011;17321;46.312;4.776;2022-12-11T00:31:18;25.08;;;14.85;;
30539;SDS011;17321;46.312;4.776;2022-12-11T00:33:44;23.88;;;12.88;;
30539;SDS011;17321;46.312;4.776;2022-12-11T00:36:15;20.70;;;13.02;;
30539;SDS011;17321;46.312;4.776;2022-12-11T00:38:42;20.27;;;12.98;;
30539;SDS011;17321;46.312;4.776;2022-12-11T00:41:08;25.27;;;13.57;;
30539;SDS011;17321;46.312;4.776;2022-12-11T00:43:35;26.30;;;13.93;;
30539;SDS011;17321;46.312;4.776;2022-12-11T00:46:01;22.98;;;13.18;;
30539;SDS011;17321;46.312;4.776;2022-12-11T00:48:27;21.35;;;13.68;;
30539;SDS011;17321;46.312;4.776;2022-12-11T00:50:54;25.98;;;13.30;;
30539;SDS011;17321;46.312;4.776;2022-12-11T00:53:20;21.85;;;11.77;;
30539;SDS011;17321;46.312;4.776;2022-12-11T00:55:46;21.80;;;13.27;;
30539;SDS011;17321;46.312;4.776;2022-12-11T00:58:12;24.75;;;13.52;;
30539;SDS011;17321;46.312;4.776;2022-12-11T01:00:39;23.70;;;13.25;;
30539;SDS011;17321;46.312;4.776;2022-12-11T01:03:05;22.60;;;13.50;;
30539;SDS011;17321;46.312;4.776;2022-12-11T01:05:31;24.48;;;13.85;;
30539;SDS011;17321;46.312;4.776;2022-12-11T01:07:58;22.17;;;13.70;;
30539;SDS011;17321;46.312;4.776;2022-12-11T01:10:24;26.45;;;13.50;;
30539;SDS011;17321;46.312;4.776;2022-12-11T01:12:51;21.85;;;13.02;;
30539;SDS011;17321;46.312;4.776;2022-12-11T01:15:18;23.48;;;13.68;;
30539;SDS011;17321;46.312;4.776;2022-12-11T01:17:44;23.80;;;13.52;;
30539;SDS011;17321;46.312;4.776;2022-12-11T01:20:10;25.63;;;13.13;;
30539;SDS011;17321;46.312;4.776;2022-12-11T01:22:37;22.27;;;13.75;;
30539;SDS011;17321;46.312;4.776;2022-12-11T01:25:03;21.30;;;14.00;;
30539;SDS011;17321;46.312;4.776;2022-12-11T01:27:29;25.23;;;13.77;;
30539;SDS011;17321;46.312;4.776;2022-12-11T01:29:55;28.13;;;14.68;;
30539;SDS011;17321;46.312;4.776;2022-12-11T01:32:21;26.08;;;14.55;;
30539;SDS011;17321;46.312;4.776;2022-12-11T01:34:47;22.77;;;14.38;;
30539;SDS011;17321;46.312;4.776;2022-12-11T01:37:13;28.90;;;15.20;;
30539;SDS011;17321;46.312;4.776;2022-12-11T01:39:39;23.67;;;13.70;;
30539;SDS011;17321;46.312;4.776;2022-12-11T01:42:06;20.98;;;13.65;;
30539;SDS011;17321;46.312;4.776;2022-12-11T01:47:01;24.50;;;13.98;;
30539;SDS011;17321;46.312;4.776;2022-12-11T01:49:27;23.92;;;13.10;;
30539;SDS011;17321;46.312;4.776;2022-12-11T01:52:01;23.30;;;13.15;;
30539;SDS011;17321;46.312;4.776;2022-12-11T01:54:28;23.38;;;12.68;;
30539;SDS011;17321;46.312;4.776;2022-12-11T01:56:55;25.80;;;14.13;;
30539;SDS011;17321;46.312;4.776;2022-12-11T01:59:25;25.42;;;13.85;;
30539;SDS011;17321;46.312;4.776;2022-12-11T02:04:24;23.38;;;12.40;;
30539;SDS011;17321;46.312;4.776;2022-12-11T02:06:50;23.73;;;14.07;;
30539;SDS011;17321;46.312;4.776;2022-12-11T02:09:27;25.23;;;13.40;;
30539;SDS011;17321;46.312;4.776;2022-12-11T02:12:13;21.35;;;12.68;;
30539;SDS011;17321;46.312;4.776;2022-12-11T02:14:42;23.50;;;13.23;;
30539;SDS011;17321;46.312;4.776;2022-12-11T02:23:11;25.67;;;13.25;;
30539;SDS011;17321;46.312;4.776;2022-12-11T02:28:12;23.58;;;13.70;;
30539;SDS011;17321;46.312;4.776;2022-12-11T02:30:41;23.60;;;13.05;;
30539;SDS011;17321;46.312;4.776;2022-12-11T02:33:08;29.23;;;15.52;;
30539;SDS011;17321;46.312;4.776;2022-12-11T02:35:40;32.67;;;15.15;;
30539;SDS011;17321;46.312;4.776;2022-12-11T02:38:27;26.35;;;14.07;;
30539;SDS011;17321;46.312;4.776;2022-12-11T02:40:53;22.80;;;12.65;;
30539;SDS011;17321;46.312;4.776;2022-12-11T02:43:20;21.77;;;12.73;;
30539;SDS011;17321;46.312;4.776;2022-12-11T02:45:47;21.50;;;13.27;;
30539;SDS011;17321;46.312;4.776;2022-12-11T02:48:15;22.33;;;13.32;;
30539;SDS011;17321;46.312;4.776;2022-12-11T02:50:43;24.77;;;12.95;;
30539;SDS011;17321;46.312;4.776;2022-12-11T02:53:11;21.02;;;12.02;;
30539;SDS011;17321;46.312;4.776;2022-12-11T02:55:38;20.70;;;13.00;;
30539;SDS011;17321;46.312;4.776;2022-12-11T02:58:12;23.05;;;12.25;;
30539;SDS011;17321;46.312;4.776;2022-12-11T03:00:39;20.58;;;12.60;;
30539;SDS011;17321;46.312;4.776;2022-12-11T03:03:05;19.98;;;11.70;;
30539;SDS011;17321;46.312;4.776;2022-12-11T03:05:32;21.73;;;12.73;;
30539;SDS011;17321;46.312;4.776;2022-12-11T03:07:58;23.17;;;12.13;;
30539;SDS011;17321;46.312;4.776;2022-12-11T03:10:24;20.42;;;12.77;;
30539;SDS011;17321;46.312;4.776;2022-12-11T03:12:51;25.27;;;14.85;;
30539;SDS011;17321;46.312;4.776;2022-12-11T03:15:18;22.38;;;14.27;;
30539;SDS011;17321;46.312;4.776;2022-12-11T03:22:50;22.73;;;13.30;;
30539;SDS011;17321;46.312;4.776;2022-12-11T03:25:19;23.02;;;12.38;;
30539;SDS011;17321;46.312;4.776;2022-12-11T03:30:17;22.92;;;11.65;;
30539;SDS011;17321;46.312;4.776;2022-12-11T03:37:39;20.15;;;11.68;;
30539;SDS011;17321;46.312;4.776;2022-12-11T03:40:08;19.10;;;11.35;;
30539;SDS011;17321;46.312;4.776;2022-12-11T03:42:35;22.02;;;12.68;;
30539;SDS011;17321;46.312;4.776;2022-12-11T03:45:02;24.17;;;12.98;;
30539;SDS011;17321;46.312;4.776;2022-12-11T03:47:29;24.10;;;13.00;;
30539;SDS011;17321;46.312;4.776;2022-12-11T03:49:56;22.65;;;13.07;;
30539;SDS011;17321;46.312;4.776;2022-12-11T03:52:24;29.93;;;14.90;;
30539;SDS011;17321;46.312;4.776;2022-12-11T03:54:51;21.58;;;13.23;;
30539;SDS011;17321;46.312;4.776;2022-12-11T03:57:20;23.20;;;12.60;;
30539;SDS011;17321;46.312;4.776;2022-12-11T03:59:47;27.50;;;14.07;;
30539;SDS011;17321;46.312;4.776;2022-12-11T04:02:13;21.63;;;13.85;;
30539;SDS011;17321;46.312;4.776;2022-12-11T04:04:40;24.85;;;13.23;;
30539;SDS011;17321;46.312;4.776;2022-12-11T04:07:06;19.50;;;12.57;;
30539;SDS011;17321;46.312;4.776;2022-12-11T04:09:32;25.40;;;14.50;;
30539;SDS011;17321;46.312;4.776;2022-12-11T04:11:59;29.25;;;15.40;;
30539;SDS011;17321;46.312;4.776;2022-12-11T04:14:25;30.20;;;16.77;;
30539;SDS011;17321;46.312;4.776;2022-12-11T04:17:10;31.88;;;19.08;;
30539;SDS011;17321;46.312;4.776;2022-12-11T04:19:56;27.10;;;16.17;;
30539;SDS011;17321;46.312;4.776;2022-12-11T04:22:41;27.15;;;15.00;;
30539;SDS011;17321;46.312;4.776;2022-12-11T04:25:25;24.65;;;13.25;;
30539;SDS011;17321;46.312;4.776;2022-12-11T04:27:52;22.13;;;12.98;;
30539;SDS011;17321;46.312;4.776;2022-12-11T04:30:22;22.38;;;13.23;;
30539;SDS011;17321;46.312;4.776;2022-12-11T04:32:48;24.73;;;13.90;;
30539;SDS011;17321;46.312;4.776;2022-12-11T04:35:15;24.63;;;13.40;;
30539;SDS011;17321;46.312;4.776;2022-12-11T04:37:41;32.75;;;14.57;;
30539;SDS011;17321;46.312;4.776;2022-12-11T04:40:08;24.70;;;13.60;;
30539;SDS011;17321;46.312;4.776;2022-12-11T04:42:35;24.17;;;13.68;;
30539;SDS011;17321;46.312;4.776;2022-12-11T04:45:01;23.60;;;13.52;;
30539;SDS011;17321;46.312;4.776;2022-12-11T04:47:28;24.85;;;14.63;;
30539;SDS011;17321;46.312;4.776;2022-12-11T04:49:54;22.67;;;13.70;;
30539;SDS011;17321;46.312;4.776;2022-12-11T04:52:20;23.27;;;13.70;;
30539;SDS011;17321;46.312;4.776;2022-12-11T04:54:46;24.73;;;14.20;;
30539;SDS011;17321;46.312;4.776;2022-12-11T04:57:12;20.30;;;12.38;;
30539;SDS011;17321;46.312;4.776;2022-12-11T04:59:38;22.70;;;14.20;;
30539;SDS011;17321;46.312;4.776;2022-12-11T05:02:05;21.98;;;14.15;;
30539;SDS011;17321;46.312;4.776;2022-12-11T05:04:32;20.52;;;12.35;;
30539;SDS011;17321;46.312;4.776;2022-12-11T05:06:58;22.30;;;13.30;;
30539;SDS011;17321;46.312;4.776;2022-12-11T05:09:24;21.73;;;13.00;;
30539;SDS011;17321;46.312;4.776;2022-12-11T05:11:51;21.33;;;12.95;;
30539;SDS011;17321;46.312;4.776;2022-12-11T05:14:17;22.08;;;13.32;;
30539;SDS011;17321;46.312;4.776;2022-12-11T05:16:43;21.55;;;12.52;;
30539;SDS011;17321;46.312;4.776;2022-12-11T05:19:09;23.25;;;14.32;;
30539;SDS011;17321;46.312;4.776;2022-12-11T05:21:36;25.77;;;14.15;;
30539;SDS011;17321;46.312;4.776;2022-12-11T05:24:02;24.35;;;14.60;;
30539;SDS011;17321;46.312;4.776;2022-12-11T05:26:28;26.35;;;14.25;;
30539;SDS011;17321;46.312;4.776;2022-12-11T05:28:55;26.08;;;15.57;;
30539;SDS011;17321;46.312;4.776;2022-12-11T05:31:25;30.75;;;14.68;;
30539;SDS011;17321;46.312;4.776;2022-12-11T05:33:51;22.65;;;13.55;;
30539;SDS011;17321;46.312;4.776;2022-12-11T05:36:21;23.25;;;13.30;;
30539;SDS011;17321;46.312;4.776;2022-12-11T05:38:48;24.70;;;14.25;;
30539;SDS011;17321;46.312;4.776;2022-12-11T05:41:15;23.00;;;13.95;;
30539;SDS011;17321;46.312;4.776;2022-12-11T05:43:42;28.30;;;13.45;;
30539;SDS011;17321;46.312;4.776;2022-12-11T05:46:15;18.40;;;11.25;;
30539;SDS011;17321;46.312;4.776;2022-12-11T05:48:42;24.02;;;13.43;;
30539;SDS011;17321;46.312;4.776;2022-12-11T05:51:08;23.00;;;13.18;;
30539;SDS011;17321;46.312;4.776;2022-12-11T05:53:35;20.20;;;12.45;;
30539;SDS011;17321;46.312;4.776;2022-12-11T05:56:02;19.70;;;11.60;;
30539;SDS011;17321;46.312;4.776;2022-12-11T05:58:29;22.48;;;12.85;;
30539;SDS011;17321;46.312;4.776;2022-12-11T06:00:55;23.83;;;13.05;;
30539;SDS011;17321;46.312;4.776;2022-12-11T06:03:21;27.25;;;13.75;;
30539;SDS011;17321;46.312;4.776;2022-12-11T06:05:47;24.00;;;14.25;;
30539;SDS011;17321;46.312;4.776;2022-12-11T06:08:14;24.35;;;14.55;;
30539;SDS011;17321;46.312;4.776;2022-12-11T06:10:46;21.15;;;13.73;;
30539;SDS011;17321;46.312;4.776;2022-12-11T06:13:13;25.77;;;14.57;;
30539;SDS011;17321;46.312;4.776;2022-12-11T06:15:39;28.83;;;14.68;;
30539;SDS011;17321;46.312;4.776;2022-12-11T06:18:05;23.75;;;13.15;;
30539;SDS011;17321;46.312;4.776;2022-12-11T06:20:32;30.15;;;15.18;;
30539;SDS011;17321;46.312;4.776;2022-12-11T06:22:59;28.88;;;18.85;;
30539;SDS011;17321;46.312;4.776;2022-12-11T06:25:25;24.30;;;14.55;;
30539;SDS011;17321;46.312;4.776;2022-12-11T06:27:52;24.77;;;14.88;;
30539;SDS011;17321;46.312;4.776;2022-12-11T06:30:18;24.13;;;14.05;;
30539;SDS011;17321;46.312;4.776;2022-12-11T06:32:44;29.48;;;15.00;;
30539;SDS011;17321;46.312;4.776;2022-12-11T06:35:10;25.98;;;14.95;;
30539;SDS011;17321;46.312;4.776;2022-12-11T06:37:36;26.27;;;15.32;;
30539;SDS011;17321;46.312;4.776;2022-12-11T06:40:03;24.42;;;13.82;;
30539;SDS011;17321;46.312;4.776;2022-12-11T06:42:30;25.02;;;14.18;;
30539;SDS011;17321;46.312;4.776;2022-12-11T06:44:56;25.13;;;13.43;;
30539;SDS011;17321;46.312;4.776;2022-12-11T06:47:27;27.25;;;15.02;;
30539;SDS011;17321;46.312;4.776;2022-12-11T06:49:53;25.00;;;15.23;;
30539;SDS011;17321;46.312;4.776;2022-12-11T06:52:20;26.60;;;14.75;;
30539;SDS011;17321;46.312;4.776;2022-12-11T06:54:47;23.02;;;14.25;;
30539;SDS011;17321;46.312;4.776;2022-12-11T06:57:13;28.27;;;14.98;;
30539;SDS011;17321;46.312;4.776;2022-12-11T06:59:39;26.38;;;15.48;;
30539;SDS011;17321;46.312;4.776;2022-12-11T07:02:05;29.67;;;16.45;;
30539;SDS011;17321;46.312;4.776;2022-12-11T07:04:31;31.25;;;16.13;;
30539;SDS011;17321;46.312;4.776;2022-12-11T07:06:58;25.73;;;14.20;;
30539;SDS011;17321;46.312;4.776;2022-12-11T07:09:24;34.13;;;18.25;;
30539;SDS011;17321;46.312;4.776;2022-12-11T07:11:51;34.83;;;16.95;;
30539;SDS011;17321;46.312;4.776;2022-12-11T07:14:18;23.77;;;14.45;;
30539;SDS011;17321;46.312;4.776;2022-12-11T07:16:44;26.02;;;13.75;;
30539;SDS011;17321;46.312;4.776;2022-12-11T07:19:10;29.83;;;15.55;;
30539;SDS011;17321;46.312;4.776;2022-12-11T07:21:36;28.95;;;15.95;;
30539;SDS011;17321;46.312;4.776;2022-12-11T07:24:02;25.17;;;15.32;;
30539;SDS011;17321;46.312;4.776;2022-12-11T07:26:29;30.65;;;15.38;;
30539;SDS011;17321;46.312;4.776;2022-12-11T07:28:55;26.70;;;15.02;;
30539;SDS011;17321;46.312;4.776;2022-12-11T07:31:23;26.40;;;15.60;;
30539;SDS011;17321;46.312;4.776;2022-12-11T07:33:56;26.63;;;15.00;;
30539;SDS011;17321;46.312;4.776;2022-12-11T07:36:23;25.13;;;14.93;;
30539;SDS011;17321;46.312;4.776;2022-12-11T07:38:49;24.30;;;15.07;;
30539;SDS011;17321;46.312;4.776;2022-12-11T07:41:15;28.55;;;15.48;;
30539;SDS011;17321;46.312;4.776;2022-12-11T07:43:42;31.85;;;17.63;;
30539;SDS011;17321;46.312;4.776;2022-12-11T07:46:10;30.90;;;18.38;;
30539;SDS011;17321;46.312;4.776;2022-12-11T07:48:37;48.70;;;24.75;;
30539;SDS011;17321;46.312;4.776;2022-12-11T07:51:10;42.50;;;22.30;;
30539;SDS011;17321;46.312;4.776;2022-12-11T07:53:36;40.80;;;21.38;;
30539;SDS011;17321;46.312;4.776;2022-12-11T07:56:02;34.97;;;18.27;;
30539;SDS011;17321;46.312;4.776;2022-12-11T07:58:28;47.47;;;23.45;;
30539;SDS011;17321;46.312;4.776;2022-12-11T08:00:55;43.42;;;24.27;;
30539;SDS011;17321;46.312;4.776;2022-12-11T08:03:22;38.40;;;20.30;;
30539;SDS011;17321;46.312;4.776;2022-12-11T08:05:49;46.67;;;25.17;;
30539;SDS011;17321;46.312;4.776;2022-12-11T08:08:16;33.65;;;19.40;;
30539;SDS011;17321;46.312;4.776;2022-12-11T08:10:42;36.45;;;18.33;;
30539;SDS011;17321;46.312;4.776;2022-12-11T08:13:08;33.80;;;19.33;;
30539;SDS011;17321;46.312;4.776;2022-12-11T08:15:35;41.25;;;22.42;;
30539;SDS011;17321;46.312;4.776;2022-12-11T08:18:01;53.28;;;24.45;;
30539;SDS011;17321;46.312;4.776;2022-12-11T08:20:27;49.00;;;24.67;;
30539;SDS011;17321;46.312;4.776;2022-12-11T08:22:54;41.05;;;22.50;;
30539;SDS011;17321;46.312;4.776;2022-12-11T08:25:21;47.67;;;24.38;;
30539;SDS011;17321;46.312;4.776;2022-12-11T08:27:47;42.25;;;22.55;;
30539;SDS011;17321;46.312;4.776;2022-12-11T08:30:13;41.90;;;22.20;;
30539;SDS011;17321;46.312;4.776;2022-12-11T08:32:40;41.65;;;22.88;;
30539;SDS011;17321;46.312;4.776;2022-12-11T08:35:06;43.20;;;22.80;;
30539;SDS011;17321;46.312;4.776;2022-12-11T08:37:32;43.13;;;22.02;;
30539;SDS011;17321;46.312;4.776;2022-12-11T08:39:59;44.90;;;23.77;;
30539;SDS011;17321;46.312;4.776;2022-12-11T08:42:26;43.08;;;22.60;;
30539;SDS011;17321;46.312;4.776;2022-12-11T08:44:52;41.95;;;22.45;;
30539;SDS011;17321;46.312;4.776;2022-12-11T08:47:18;47.00;;;22.55;;
30539;SDS011;17321;46.312;4.776;2022-12-11T08:49:44;41.10;;;20.70;;
30539;SDS011;17321;46.312;4.776;2022-12-11T08:52:11;44.33;;;23.77;;
30539;SDS011;17321;46.312;4.776;2022-12-11T08:54:37;48.50;;;22.52;;
30539;SDS011;17321;46.312;4.776;2022-12-11T08:57:03;41.03;;;20.30;;
30539;SDS011;17321;46.312;4.776;2022-12-11T08:59:29;40.33;;;22.23;;
30539;SDS011;17321;46.312;4.776;2022-12-11T09:01:55;44.60;;;21.95;;
30539;SDS011;17321;46.312;4.776;2022-12-11T09:04:22;38.00;;;20.58;;
30539;SDS011;17321;46.312;4.776;2022-12-11T09:06:48;39.67;;;22.40;;
30539;SDS011;17321;46.312;4.776;2022-12-11T09:09:14;36.88;;;21.30;;
30539;SDS011;17321;46.312;4.776;2022-12-11T09:11:41;33.28;;;20.35;;
30539;SDS011;17321;46.312;4.776;2022-12-11T09:14:07;44.05;;;22.48;;
30539;SDS011;17321;46.312;4.776;2022-12-11T09:16:34;40.05;;;21.83;;
30539;SDS011;17321;46.312;4.776;2022-12-11T09:19:05;42.40;;;21.00;;
30539;SDS011;17321;46.312;4.776;2022-12-11T09:21:31;44.97;;;23.65;;
30539;SDS011;17321;46.312;4.776;2022-12-11T09:23:58;40.25;;;21.23;;
30539;SDS011;17321;46.312;4.776;2022-12-11T09:26:25;37.65;;;21.10;;
30539;SDS011;17321;46.312;4.776;2022-12-11T09:28:51;42.28;;;22.50;;
30539;SDS011;17321;46.312;4.776;2022-12-11T09:31:22;41.53;;;22.13;;
30539;SDS011;17321;46.312;4.776;2022-12-11T09:33:48;43.08;;;22.75;;
30539;SDS011;17321;46.312;4.776;2022-12-11T09:36:16;41.78;;;19.02;;
30539;SDS011;17321;46.312;4.776;2022-12-11T09:38:42;42.85;;;20.90;;
30539;SDS011;17321;46.312;4.776;2022-12-11T09:44:00;43.65;;;22.27;;
30539;SDS011;17321;46.312;4.776;2022-12-11T09:46:27;47.15;;;22.80;;
30539;SDS011;17321;46.312;4.776;2022-12-11T09:48:54;43.88;;;22.02;;
30539;SDS011;17321;46.312;4.776;2022-12-11T09:51:21;43.78;;;23.60;;
30539;SDS011;17321;46.312;4.776;2022-12-11T09:53:48;49.53;;;23.90;;
30539;SDS011;17321;46.312;4.776;2022-12-11T09:58:52;40.67;;;21.13;;
30539;SDS011;17321;46.312;4.776;2022-12-11T10:01:21;36.35;;;20.95;;
30539;SDS011;17321;46.312;4.776;2022-12-11T10:06:36;41.10;;;23.05;;
30539;SDS011;17321;46.312;4.776;2022-12-11T10:09:18;42.95;;;22.95;;
30539;SDS011;17321;46.312;4.776;2022-12-11T10:14:25;44.33;;;21.73;;
30539;SDS011;17321;46.312;4.776;2022-12-11T10:17:03;46.70;;;23.88;;
30539;SDS011;17321;46.312;4.776;2022-12-11T10:19:30;45.53;;;25.80;;
30539;SDS011;17321;46.312;4.776;2022-12-11T10:21:57;58.55;;;29.58;;
30539;SDS011;17321;46.312;4.776;2022-12-11T10:26:55;49.90;;;23.70;;
30539;SDS011;17321;46.312;4.776;2022-12-11T10:29:22;57.67;;;27.65;;
30539;SDS011;17321;46.312;4.776;2022-12-11T10:31:55;44.58;;;23.85;;
30539;SDS011;17321;46.312;4.776;2022-12-11T10:34:25;48.53;;;25.50;;
30539;SDS011;17321;46.312;4.776;2022-12-11T10:36:53;43.88;;;24.60;;
30539;SDS011;17321;46.312;4.776;2022-12-11T10:39:21;43.78;;;24.55;;
30539;SDS011;17321;46.312;4.776;2022-12-11T10:41:48;47.42;;;25.75;;
30539;SDS011;17321;46.312;4.776;2022-12-11T10:46:44;46.10;;;22.73;;
30539;SDS011;17321;46.312;4.776;2022-12-11T10:49:33;37.63;;;21.30;;
30539;SDS011;17321;46.312;4.776;2022-12-11T10:51:57;38.10;;;21.42;;
30539;SDS011;17321;46.312;4.776;2022-12-11T10:54:34;40.03;;;22.60;;
30539;SDS011;17321;46.312;4.776;2022-12-11T10:57:02;44.05;;;23.05;;
30539;SDS011;17321;46.312;4.776;2022-12-11T11:01:58;49.42;;;26.40;;
30539;SDS011;17321;46.312;4.776;2022-12-11T11:04:31;41.72;;;22.38;;
30539;SDS011;17321;46.312;4.776;2022-12-11T11:07:02;48.90;;;25.80;;
30539;SDS011;17321;46.312;4.776;2022-12-11T11:09:30;50.15;;;27.17;;
30539;SDS011;17321;46.312;4.776;2022-12-11T11:11:56;43.65;;;23.80;;
30539;SDS011;17321;46.312;4.776;2022-12-11T11:14:22;45.40;;;25.85;;
30539;SDS011;17321;46.312;4.776;2022-12-11T11:16:49;48.03;;;25.17;;
30539;SDS011;17321;46.312;4.776;2022-12-11T11:19:29;47.88;;;26.25;;
30539;SDS011;17321;46.312;4.776;2022-12-11T11:21:57;46.50;;;26.00;;
30539;SDS011;17321;46.312;4.776;2022-12-11T11:24:33;47.80;;;25.20;;
30539;SDS011;17321;46.312;4.776;2022-12-11T11:27:00;55.83;;;28.17;;
30539;SDS011;17321;46.312;4.776;2022-12-11T11:29:31;46.08;;;24.15;;
30539;SDS011;17321;46.312;4.776;2022-12-11T11:31:59;52.17;;;25.70;;
30539;SDS011;17321;46.312;4.776;2022-12-11T11:34:28;51.30;;;27.85;;
30539;SDS011;17321;46.312;4.776;2022-12-11T11:36:56;46.03;;;25.15;;
30539;SDS011;17321;46.312;4.776;2022-12-11T11:39:30;48.00;;;25.38;;
30539;SDS011;17321;46.312;4.776;2022-12-11T11:44:45;50.03;;;27.40;;
30539;SDS011;17321;46.312;4.776;2022-12-11T11:47:13;42.75;;;23.52;;
30539;SDS011;17321;46.312;4.776;2022-12-11T11:49:48;42.75;;;25.05;;
30539;SDS011;17321;46.312;4.776;2022-12-11T11:57:19;49.92;;;24.45;;
30539;SDS011;17321;46.312;4.776;2022-12-11T11:59:55;39.50;;;23.83;;
30539;SDS011;17321;46.312;4.776;2022-12-11T12:02:22;40.85;;;21.65;;
30539;SDS011;17321;46.312;4.776;2022-12-11T12:04:49;45.67;;;24.15;;
30539;SDS011;17321;46.312;4.776;2022-12-11T12:10:16;42.70;;;22.00;;
30539;SDS011;17321;46.312;4.776;2022-12-11T12:15:50;40.65;;;22.83;;
30539;SDS011;17321;46.312;4.776;2022-12-11T12:20:44;49.47;;;25.25;;
30539;SDS011;17321;46.312;4.776;2022-12-11T12:23:24;53.53;;;26.40;;
30539;SDS011;17321;46.312;4.776;2022-12-11T12:26:16;49.50;;;25.40;;
30539;SDS011;17321;46.312;4.776;2022-12-11T12:41:43;45.50;;;24.63;;
30539;SDS011;17321;46.312;4.776;2022-12-11T12:44:15;47.92;;;24.92;;
30539;SDS011;17321;46.312;4.776;2022-12-11T12:49:14;45.15;;;25.77;;
30539;SDS011;17321;46.312;4.776;2022-12-11T12:51:41;87.63;;;55.15;;
30539;SDS011;17321;46.312;4.776;2022-12-11T12:54:10;45.13;;;24.98;;
30539;SDS011;17321;46.312;4.776;2022-12-11T12:56:39;46.55;;;26.52;;
30539;SDS011;17321;46.312;4.776;2022-12-11T12:59:21;59.10;;;31.67;;
30539;SDS011;17321;46.312;4.776;2022-12-11T13:01:49;47.55;;;27.38;;
30539;SDS011;17321;46.312;4.776;2022-12-11T13:06:55;47.58;;;25.30;;
30539;SDS011;17321;46.312;4.776;2022-12-11T13:09:23;47.08;;;25.17;;
30539;SDS011;17321;46.312;4.776;2022-12-11T13:11:52;44.63;;;25.55;;
30539;SDS011;17321;46.312;4.776;2022-12-11T13:14:30;42.58;;;23.52;;
30539;SDS011;17321;46.312;4.776;2022-12-11T13:17:33;46.75;;;29.35;;
30539;SDS011;17321;46.312;4.776;2022-12-11T13:20:02;46.75;;;24.98;;
30539;SDS011;17321;46.312;4.776;2022-12-11T13:22:45;47.30;;;26.90;;
30539;SDS011;17321;46.312;4.776;2022-12-11T13:25:31;54.22;;;30.25;;
30539;SDS011;17321;46.312;4.776;2022-12-11T13:28:17;45.63;;;25.40;;
30539;SDS011;17321;46.312;4.776;2022-12-11T13:33:25;46.97;;;26.17;;
30539;SDS011;17321;46.312;4.776;2022-12-11T13:38:20;75.22;;;43.22;;
30539;SDS011;17321;46.312;4.776;2022-12-11T13:40:50;63.35;;;36.70;;
30539;SDS011;17321;46.312;4.776;2022-12-11T13:43:51;49.13;;;28.67;;
30539;SDS011;17321;46.312;4.776;2022-12-11T13:46:11;52.35;;;29.58;;
30539;SDS011;17321;46.312;4.776;2022-12-11T13:49:00;47.17;;;25.60;;
30539;SDS011;17321;46.312;4.776;2022-12-11T13:51:28;51.25;;;27.75;;
30539;SDS011;17321;46.312;4.776;2022-12-11T13:56:29;45.72;;;25.20;;
30539;SDS011;17321;46.312;4.776;2022-12-11T13:58:56;44.92;;;24.40;;
30539;SDS011;17321;46.312;4.776;2022-12-11T14:01:23;45.72;;;25.73;;
30539;SDS011;17321;46.312;4.776;2022-12-11T14:03:59;46.65;;;25.80;;
30539;SDS011;17321;46.312;4.776;2022-12-11T14:06:26;51.88;;;27.67;;
30539;SDS011;17321;46.312;4.776;2022-12-11T14:08:54;56.55;;;30.50;;
30539;SDS011;17321;46.312;4.776;2022-12-11T14:13:52;52.63;;;26.95;;
30539;SDS011;17321;46.312;4.776;2022-12-11T14:16:20;49.42;;;25.13;;
30539;SDS011;17321;46.312;4.776;2022-12-11T14:18:49;48.67;;;28.00;;
30539;SDS011;17321;46.312;4.776;2022-12-11T14:21:20;50.78;;;26.17;;
30539;SDS011;17321;46.312;4.776;2022-12-11T14:23:52;50.95;;;28.00;;
30539;SDS011;17321;46.312;4.776;2022-12-11T14:26:20;48.78;;;27.15;;
30539;SDS011;17321;46.312;4.776;2022-12-11T14:28:46;47.15;;;24.92;;
30539;SDS011;17321;46.312;4.776;2022-12-11T14:31:26;52.20;;;28.65;;
30539;SDS011;17321;46.312;4.776;2022-12-11T14:33:58;51.78;;;26.20;;
30539;SDS011;17321;46.312;4.776;2022-12-11T14:36:26;52.67;;;28.65;;
30539;SDS011;17321;46.312;4.776;2022-12-11T14:38:57;49.45;;;27.77;;
30539;SDS011;17321;46.312;4.776;2022-12-11T14:44:12;54.58;;;31.50;;
30539;SDS011;17321;46.312;4.776;2022-12-11T14:46:47;48.05;;;27.10;;
30539;SDS011;17321;46.312;4.776;2022-12-11T14:52:04;54.63;;;29.35;;
30539;SDS011;17321;46.312;4.776;2022-12-11T14:54:36;61.40;;;39.45;;
30539;SDS011;17321;46.312;4.776;2022-12-11T14:57:06;63.28;;;34.92;;
30539;SDS011;17321;46.312;4.776;2022-12-11T14:59:35;58.58;;;30.75;;
30539;SDS011;17321;46.312;4.776;2022-12-11T15:02:19;53.45;;;28.75;;
30539;SDS011;17321;46.312;4.776;2022-12-11T15:04:56;50.63;;;28.63;;
30539;SDS011;17321;46.312;4.776;2022-12-11T15:07:24;48.47;;;27.50;;
30539;SDS011;17321;46.312;4.776;2022-12-11T15:09:50;51.97;;;27.35;;
30539;SDS011;17321;46.312;4.776;2022-12-11T15:12:17;50.13;;;25.83;;
30539;SDS011;17321;46.312;4.776;2022-12-11T15:14:47;53.20;;;26.60;;
30539;SDS011;17321;46.312;4.776;2022-12-11T15:17:14;55.78;;;29.13;;
30539;SDS011;17321;46.312;4.776;2022-12-11T15:19:40;50.22;;;26.75;;
30539;SDS011;17321;46.312;4.776;2022-12-11T15:22:07;47.72;;;25.95;;
30539;SDS011;17321;46.312;4.776;2022-12-11T15:24:38;51.33;;;26.90;;
30539;SDS011;17321;46.312;4.776;2022-12-11T15:27:05;55.35;;;28.50;;
30539;SDS011;17321;46.312;4.776;2022-12-11T15:29:36;43.92;;;24.17;;
30539;SDS011;17321;46.312;4.776;2022-12-11T15:34:32;49.33;;;24.08;;
30539;SDS011;17321;46.312;4.776;2022-12-11T15:36:59;46.55;;;24.42;;
30539;SDS011;17321;46.312;4.776;2022-12-11T15:39:25;48.13;;;25.83;;
30539;SDS011;17321;46.312;4.776;2022-12-11T15:41:52;48.42;;;24.15;;
30539;SDS011;17321;46.312;4.776;2022-12-11T15:44:19;40.42;;;22.75;;
30539;SDS011;17321;46.312;4.776;2022-12-11T15:46:46;47.78;;;23.73;;
30539;SDS011;17321;46.312;4.776;2022-12-11T15:49:13;47.58;;;23.50;;
30539;SDS011;17321;46.312;4.776;2022-12-11T15:51:40;44.10;;;24.15;;
30539;SDS011;17321;46.312;4.776;2022-12-11T15:54:06;44.95;;;22.52;;
30539;SDS011;17321;46.312;4.776;2022-12-11T15:56:33;51.35;;;27.83;;
30539;SDS011;17321;46.312;4.776;2022-12-11T15:59:01;40.92;;;21.17;;
30539;SDS011;17321;46.312;4.776;2022-12-11T16:01:29;49.92;;;23.13;;
30539;SDS011;17321;46.312;4.776;2022-12-11T16:03:55;48.75;;;24.52;;
30539;SDS011;17321;46.312;4.776;2022-12-11T16:06:22;48.15;;;24.08;;